sensor_id;sensor_type;location;lat;lon;timestamp;temperature;humidity
41628;DHT22;27321;50.816;6.054;2022-12-10T00:02:29;3.20;71.30
41628;DHT22;27321;50.816;6.054;2022-12-10T00:05:33;3.20;71.50
41628;DHT22;27321;50.816;6.054;2022-12-10T00:08:35;3.10;71.40
41628;DHT22;27321;50.816;6.054;2022-12-10T00:11:36;3.10;71.90
41628;DHT22;27321;50.816;6.054;2022-12-10T00:14:37;3.10;71.80
41628;DHT22;27321;50.816;6.054;2022-12-10T00:17:38;3.00;71.60
41628;DHT22;27321;50.816;6.054;2022-12-10T00:20:39;3.00;71.60
41628;DHT22;27321;50.816;6.054;2022-12-10T00:23:40;3.00;72.30
41628;DHT22;27321;50.816;6.054;2022-12-10T00:26:41;3.10;72.40
41628;DHT22;27321;50.816;6.054;2022-12-10T00:29:42;3.10;71.90
41628;DHT22;27321;50.816;6.054;2022-12-10T00:32:43;3.20;71.80
41628;DHT22;27321;50.816;6.054;2022-12-10T00:35:44;3.30;72.00
41628;DHT22;27321;50.816;6.054;2022-12-10T00:38:46;3.20;71.50
41628;DHT22;27321;50.816;6.054;2022-12-10T00:41:48;3.20;71.20
41628;DHT22;27321;50.816;6.054;2022-12-10T00:44:49;3.00;71.70
41628;DHT22;27321;50.816;6.054;2022-12-10T00:47:50;3.00;71.50
41628;DHT22;27321;50.816;6.054;2022-12-10T00:50:56;3.00;71.70
41628;DHT22;27321;50.816;6.054;2022-12-10T00:53:58;3.10;72.20
41628;DHT22;27321;50.816;6.054;2022-12-10T00:56:59;3.10;71.80
41628;DHT22;27321;50.816;6.054;2022-12-10T01:00:00;3.20;71.60
41628;DHT22;27321;50.816;6.054;2022-12-10T01:03:01;3.20;71.80
41628;DHT22;27321;50.816;6.054;2022-12-10T01:06:11;3.20;70.90
41628;DHT22;27321;50.816;6.054;2022-12-10T01:09:20;3.10;71.90
41628;DHT22;27321;50.816;6.054;2022-12-10T01:12:27;3.10;72.40
41628;DHT22;27321;50.816;6.054;2022-12-10T01:15:29;3.10;72.20
41628;DHT22;27321;50.816;6.054;2022-12-10T01:18:31;3.10;71.50
41628;DHT22;27321;50.816;6.054;2022-12-10T01:21:31;3.10;72.00
41628;DHT22;27321;50.816;6.054;2022-12-10T01:24:32;3.10;72.40
41628;DHT22;27321;50.816;6.054;2022-12-10T01:27:33;3.20;72.00
41628;DHT22;27321;50.816;6.054;2022-12-10T01:30:34;3.30;72.10
41628;DHT22;27321;50.816;6.054;2022-12-10T01:33:37;3.30;71.80
41628;DHT22;27321;50.816;6.054;2022-12-10T01:36:41;3.30;71.90
41628;DHT22;27321;50.816;6.054;2022-12-10T01:39:45;3.30;71.70
41628;DHT22;27321;50.816;6.054;2022-12-10T01:42:46;3.40;71.60
41628;DHT22;27321;50.816;6.054;2022-12-10T01:45:49;3.40;71.50
41628;DHT22;27321;50.816;6.054;2022-12-10T01:48:50;3.40;71.10
41628;DHT22;27321;50.816;6.054;2022-12-10T01:51:54;3.30;71.00
41628;DHT22;27321;50.816;6.054;2022-12-10T01:54:55;3.20;70.00
41628;DHT22;27321;50.816;6.054;2022-12-10T01:57:57;3.00;70.90
41628;DHT22;27321;50.816;6.054;2022-12-10T02:01:05;2.90;72.30
41628;DHT22;27321;50.816;6.054;2022-12-10T02:11:52;3.10;71.80
41628;DHT22;27321;50.816;6.054;2022-12-10T02:15:06;3.10;71.60
41628;DHT22;27321;50.816;6.054;2022-12-10T02:19:20;3.00;71.00
41628;DHT22;27321;50.816;6.054;2022-12-10T02:22:42;3.10;71.90
41628;DHT22;27321;50.816;6.054;2022-12-10T02:25:59;3.10;71.60
41628;DHT22;27321;50.816;6.054;2022-12-10T02:29:20;3.30;71.60
41628;DHT22;27321;50.816;6.054;2022-12-10T02:32:26;3.30;71.40
41628;DHT22;27321;50.816;6.054;2022-12-10T02:35:36;3.20;71.00
41628;DHT22;27321;50.816;6.054;2022-12-10T02:38:40;3.30;71.00
41628;DHT22;27321;50.816;6.054;2022-12-10T02:41:47;3.10;71.10
41628;DHT22;27321;50.816;6.054;2022-12-10T02:44:52;3.00;71.30
41628;DHT22;27321;50.816;6.054;2022-12-10T02:47:59;3.00;72.20
41628;DHT22;27321;50.816;6.054;2022-12-10T02:51:07;3.00;71.60
41628;DHT22;27321;50.816;6.054;2022-12-10T02:58:10;3.00;71.50
41628;DHT22;27321;50.816;6.054;2022-12-10T03:05:21;3.10;71.50
41628;DHT22;27321;50.816;6.054;2022-12-10T03:12:07;3.20;71.00
41628;DHT22;27321;50.816;6.054;2022-12-10T03:15:14;3.10;70.30
41628;DHT22;27321;50.816;6.054;2022-12-10T03:18:19;3.00;71.90
41628;DHT22;27321;50.816;6.054;2022-12-10T03:21:25;3.10;71.70
41628;DHT22;27321;50.816;6.054;2022-12-10T03:24:28;3.20;71.40
41628;DHT22;27321;50.816;6.054;2022-12-10T03:27:29;3.30;71.40
41628;DHT22;27321;50.816;6.054;2022-12-10T03:30:32;3.30;71.30
41628;DHT22;27321;50.816;6.054;2022-12-10T03:33:33;3.30;71.20
41628;DHT22;27321;50.816;6.054;2022-12-10T03:36:34;3.40;70.90
41628;DHT22;27321;50.816;6.054;2022-12-10T03:39:36;3.50;70.50
41628;DHT22;27321;50.816;6.054;2022-12-10T03:42:38;3.50;70.80
41628;DHT22;27321;50.816;6.054;2022-12-10T03:45:40;3.50;70.60
41628;DHT22;27321;50.816;6.054;2022-12-10T03:48:41;3.60;70.50
41628;DHT22;27321;50.816;6.054;2022-12-10T03:51:42;3.50;70.70
41628;DHT22;27321;50.816;6.054;2022-12-10T03:54:44;3.50;70.40
41628;DHT22;27321;50.816;6.054;2022-12-10T03:57:45;3.50;70.60
41628;DHT22;27321;50.816;6.054;2022-12-10T04:00:48;3.50;70.40
41628;DHT22;27321;50.816;6.054;2022-12-10T04:03:49;3.40;70.80
41628;DHT22;27321;50.816;6.054;2022-12-10T04:06:50;3.40;70.40
41628;DHT22;27321;50.816;6.054;2022-12-10T04:09:51;3.30;71.00
41628;DHT22;27321;50.816;6.054;2022-12-10T04:12:53;3.30;71.00
41628;DHT22;27321;50.816;6.054;2022-12-10T04:16:14;3.40;70.70
41628;DHT22;27321;50.816;6.054;2022-12-10T04:19:27;3.40;71.10
41628;DHT22;27321;50.816;6.054;2022-12-10T04:22:28;3.40;70.20
41628;DHT22;27321;50.816;6.054;2022-12-10T04:25:47;3.40;70.60
41628;DHT22;27321;50.816;6.054;2022-12-10T04:29:07;3.40;70.80
41628;DHT22;27321;50.816;6.054;2022-12-10T04:32:09;3.50;70.30
41628;DHT22;27321;50.816;6.054;2022-12-10T04:35:11;3.40;70.50
41628;DHT22;27321;50.816;6.054;2022-12-10T04:38:12;3.40;70.90
41628;DHT22;27321;50.816;6.054;2022-12-10T04:41:13;3.50;70.50
41628;DHT22;27321;50.816;6.054;2022-12-10T04:44:16;3.50;70.20
41628;DHT22;27321;50.816;6.054;2022-12-10T04:47:18;3.50;70.40
41628;DHT22;27321;50.816;6.054;2022-12-10T04:50:19;3.50;70.20
41628;DHT22;27321;50.816;6.054;2022-12-10T04:53:20;3.50;69.60
41628;DHT22;27321;50.816;6.054;2022-12-10T04:56:21;3.50;69.40
41628;DHT22;27321;50.816;6.054;2022-12-10T04:59:22;3.50;69.40
41628;DHT22;27321;50.816;6.054;2022-12-10T05:02:23;3.50;69.50
41628;DHT22;27321;50.816;6.054;2022-12-10T05:05:24;3.50;69.70
41628;DHT22;27321;50.816;6.054;2022-12-10T05:08:25;3.50;69.40
41628;DHT22;27321;50.816;6.054;2022-12-10T05:11:27;3.50;69.10
41628;DHT22;27321;50.816;6.054;2022-12-10T05:14:29;3.50;69.40
41628;DHT22;27321;50.816;6.054;2022-12-10T05:17:30;3.50;69.40
41628;DHT22;27321;50.816;6.054;2022-12-10T05:20:31;3.50;69.60
41628;DHT22;27321;50.816;6.054;2022-12-10T05:23:35;3.60;69.30
41628;DHT22;27321;50.816;6.054;2022-12-10T05:26:37;3.60;69.60
41628;DHT22;27321;50.816;6.054;2022-12-10T05:29:38;3.60;69.10
41628;DHT22;27321;50.816;6.054;2022-12-10T05:32:39;3.60;69.50
41628;DHT22;27321;50.816;6.054;2022-12-10T05:35:40;3.60;69.00
41628;DHT22;27321;50.816;6.054;2022-12-10T05:38:41;3.60;69.00
41628;DHT22;27321;50.816;6.054;2022-12-10T05:41:42;3.60;69.40
41628;DHT22;27321;50.816;6.054;2022-12-10T05:44:44;3.60;69.00
41628;DHT22;27321;50.816;6.054;2022-12-10T05:47:45;3.50;69.10
41628;DHT22;27321;50.816;6.054;2022-12-10T05:50:46;3.50;68.90
41628;DHT22;27321;50.816;6.054;2022-12-10T05:53:47;3.50;69.60
41628;DHT22;27321;50.816;6.054;2022-12-10T05:56:48;3.50;69.50
41628;DHT22;27321;50.816;6.054;2022-12-10T05:59:49;3.50;69.10
41628;DHT22;27321;50.816;6.054;2022-12-10T06:02:50;3.50;68.90
41628;DHT22;27321;50.816;6.054;2022-12-10T06:05:52;3.50;69.00
41628;DHT22;27321;50.816;6.054;2022-12-10T06:08:54;3.50;68.70
41628;DHT22;27321;50.816;6.054;2022-12-10T06:11:56;3.40;68.90
41628;DHT22;27321;50.816;6.054;2022-12-10T06:14:57;3.40;68.40
41628;DHT22;27321;50.816;6.054;2022-12-10T06:17:58;3.40;68.80
41628;DHT22;27321;50.816;6.054;2022-12-10T06:21:03;3.30;68.80
41628;DHT22;27321;50.816;6.054;2022-12-10T06:24:05;3.30;68.40
41628;DHT22;27321;50.816;6.054;2022-12-10T06:27:06;3.30;68.70
41628;DHT22;27321;50.816;6.054;2022-12-10T06:30:08;3.20;68.10
41628;DHT22;27321;50.816;6.054;2022-12-10T06:33:09;3.20;67.90
41628;DHT22;27321;50.816;6.054;2022-12-10T06:36:12;3.20;68.20
41628;DHT22;27321;50.816;6.054;2022-12-10T06:39:15;3.20;67.80
41628;DHT22;27321;50.816;6.054;2022-12-10T06:42:16;3.20;68.60
41628;DHT22;27321;50.816;6.054;2022-12-10T06:45:17;3.30;68.60
41628;DHT22;27321;50.816;6.054;2022-12-10T06:48:18;3.30;68.00
41628;DHT22;27321;50.816;6.054;2022-12-10T06:51:19;3.20;68.20
41628;DHT22;27321;50.816;6.054;2022-12-10T06:54:20;3.10;68.40
41628;DHT22;27321;50.816;6.054;2022-12-10T06:57:21;3.10;67.80
41628;DHT22;27321;50.816;6.054;2022-12-10T07:00:22;3.10;68.70
41628;DHT22;27321;50.816;6.054;2022-12-10T07:03:23;3.10;68.30
41628;DHT22;27321;50.816;6.054;2022-12-10T07:06:26;3.00;68.70
41628;DHT22;27321;50.816;6.054;2022-12-10T07:09:29;3.10;68.40
41628;DHT22;27321;50.816;6.054;2022-12-10T07:12:31;3.00;69.20
41628;DHT22;27321;50.816;6.054;2022-12-10T07:15:33;3.10;68.90
41628;DHT22;27321;50.816;6.054;2022-12-10T07:18:37;3.10;68.30
41628;DHT22;27321;50.816;6.054;2022-12-10T07:21:40;3.00;68.30
41628;DHT22;27321;50.816;6.054;2022-12-10T07:24:42;3.10;68.60
41628;DHT22;27321;50.816;6.054;2022-12-10T07:27:43;3.10;68.50
41628;DHT22;27321;50.816;6.054;2022-12-10T07:30:44;3.20;68.10
41628;DHT22;27321;50.816;6.054;2022-12-10T07:33:46;3.00;68.10
41628;DHT22;27321;50.816;6.054;2022-12-10T07:36:47;3.00;68.00
41628;DHT22;27321;50.816;6.054;2022-12-10T07:39:48;3.00;68.50
41628;DHT22;27321;50.816;6.054;2022-12-10T07:42:49;3.00;68.10
41628;DHT22;27321;50.816;6.054;2022-12-10T07:45:50;2.90;68.30
41628;DHT22;27321;50.816;6.054;2022-12-10T07:48:51;2.90;68.50
41628;DHT22;27321;50.816;6.054;2022-12-10T07:51:53;3.00;68.30
41628;DHT22;27321;50.816;6.054;2022-12-10T07:54:53;3.00;68.60
41628;DHT22;27321;50.816;6.054;2022-12-10T07:57:54;3.10;68.00
41628;DHT22;27321;50.816;6.054;2022-12-10T08:00:55;3.10;68.50
41628;DHT22;27321;50.816;6.054;2022-12-10T08:03:56;3.10;68.20
41628;DHT22;27321;50.816;6.054;2022-12-10T08:06:58;3.10;68.00
41628;DHT22;27321;50.816;6.054;2022-12-10T08:09:59;3.20;68.20
41628;DHT22;27321;50.816;6.054;2022-12-10T08:13:00;3.20;68.30
41628;DHT22;27321;50.816;6.054;2022-12-10T08:19:08;3.10;68.10
41628;DHT22;27321;50.816;6.054;2022-12-10T08:22:10;3.00;68.20
41628;DHT22;27321;50.816;6.054;2022-12-10T08:25:10;3.10;68.40
41628;DHT22;27321;50.816;6.054;2022-12-10T08:28:11;3.20;68.20
41628;DHT22;27321;50.816;6.054;2022-12-10T08:31:13;3.20;68.30
41628;DHT22;27321;50.816;6.054;2022-12-10T08:34:17;3.20;68.50
41628;DHT22;27321;50.816;6.054;2022-12-10T08:37:22;3.20;68.40
41628;DHT22;27321;50.816;6.054;2022-12-10T08:40:22;3.30;68.60
41628;DHT22;27321;50.816;6.054;2022-12-10T08:43:24;3.30;68.20
41628;DHT22;27321;50.816;6.054;2022-12-10T08:46:25;3.30;68.40
41628;DHT22;27321;50.816;6.054;2022-12-10T08:49:27;3.30;68.10
41628;DHT22;27321;50.816;6.054;2022-12-10T08:52:28;3.30;68.40
41628;DHT22;27321;50.816;6.054;2022-12-10T08:55:30;3.40;68.50
41628;DHT22;27321;50.816;6.054;2022-12-10T08:58:31;3.50;67.70
41628;DHT22;27321;50.816;6.054;2022-12-10T09:01:32;3.40;67.60
41628;DHT22;27321;50.816;6.054;2022-12-10T09:04:33;3.40;68.20
41628;DHT22;27321;50.816;6.054;2022-12-10T09:07:41;3.40;68.20
41628;DHT22;27321;50.816;6.054;2022-12-10T09:10:42;3.40;67.90
41628;DHT22;27321;50.816;6.054;2022-12-10T09:13:43;3.50;68.20
41628;DHT22;27321;50.816;6.054;2022-12-10T09:16:44;3.50;68.30
41628;DHT22;27321;50.816;6.054;2022-12-10T09:19:46;3.50;67.90
41628;DHT22;27321;50.816;6.054;2022-12-10T09:22:50;3.50;67.80
41628;DHT22;27321;50.816;6.054;2022-12-10T09:25:51;3.50;67.60
41628;DHT22;27321;50.816;6.054;2022-12-10T09:28:52;3.50;68.00
41628;DHT22;27321;50.816;6.054;2022-12-10T09:31:55;3.50;67.50
41628;DHT22;27321;50.816;6.054;2022-12-10T09:34:56;3.50;67.70
41628;DHT22;27321;50.816;6.054;2022-12-10T09:37:56;3.60;68.10
41628;DHT22;27321;50.816;6.054;2022-12-10T09:41:03;3.60;67.40
41628;DHT22;27321;50.816;6.054;2022-12-10T09:44:21;3.60;67.60
41628;DHT22;27321;50.816;6.054;2022-12-10T09:47:40;3.70;67.80
41628;DHT22;27321;50.816;6.054;2022-12-10T09:51:19;3.70;67.30
41628;DHT22;27321;50.816;6.054;2022-12-10T09:54:33;3.70;66.50
41628;DHT22;27321;50.816;6.054;2022-12-10T09:57:43;3.60;66.60
41628;DHT22;27321;50.816;6.054;2022-12-10T10:00:50;3.70;66.50
41628;DHT22;27321;50.816;6.054;2022-12-10T10:03:53;3.60;66.90
41628;DHT22;27321;50.816;6.054;2022-12-10T10:06:54;3.60;67.60
41628;DHT22;27321;50.816;6.054;2022-12-10T10:09:59;3.70;67.30
41628;DHT22;27321;50.816;6.054;2022-12-10T10:19:49;3.70;66.90
41628;DHT22;27321;50.816;6.054;2022-12-10T10:22:51;3.80;67.20
41628;DHT22;27321;50.816;6.054;2022-12-10T10:25:55;3.80;66.70
41628;DHT22;27321;50.816;6.054;2022-12-10T10:29:05;3.90;66.70
41628;DHT22;27321;50.816;6.054;2022-12-10T10:32:21;3.90;66.20
41628;DHT22;27321;50.816;6.054;2022-12-10T10:35:56;3.80;66.90
41628;DHT22;27321;50.816;6.054;2022-12-10T10:39:27;3.90;67.00
41628;DHT22;27321;50.816;6.054;2022-12-10T10:42:39;3.80;66.20
41628;DHT22;27321;50.816;6.054;2022-12-10T10:45:43;3.80;67.10
41628;DHT22;27321;50.816;6.054;2022-12-10T10:48:49;3.90;67.40
41628;DHT22;27321;50.816;6.054;2022-12-10T10:51:51;3.90;67.50
41628;DHT22;27321;50.816;6.054;2022-12-10T10:54:57;4.00;67.20
41628;DHT22;27321;50.816;6.054;2022-12-10T10:58:03;4.00;67.40
41628;DHT22;27321;50.816;6.054;2022-12-10T11:01:14;4.00;67.20
41628;DHT22;27321;50.816;6.054;2022-12-10T11:04:22;4.00;66.50
41628;DHT22;27321;50.816;6.054;2022-12-10T11:07:36;3.90;67.50
41628;DHT22;27321;50.816;6.054;2022-12-10T11:10:51;3.90;67.60
41628;DHT22;27321;50.816;6.054;2022-12-10T11:13:53;3.80;67.80
41628;DHT22;27321;50.816;6.054;2022-12-10T11:20:20;3.90;67.80
41628;DHT22;27321;50.816;6.054;2022-12-10T11:23:27;3.90;68.00
41628;DHT22;27321;50.816;6.054;2022-12-10T11:30:04;3.80;68.30
41628;DHT22;27321;50.816;6.054;2022-12-10T11:37:11;3.80;68.20
41628;DHT22;27321;50.816;6.054;2022-12-10T11:46:09;3.90;67.80
41628;DHT22;27321;50.816;6.054;2022-12-10T11:50:18;3.90;68.20
41628;DHT22;27321;50.816;6.054;2022-12-10T12:16:03;4.20;68.20
41628;DHT22;27321;50.816;6.054;2022-12-10T12:19:16;4.10;67.90
41628;DHT22;27321;50.816;6.054;2022-12-10T12:22:37;4.10;68.30
41628;DHT22;27321;50.816;6.054;2022-12-10T12:25:51;4.10;68.60
41628;DHT22;27321;50.816;6.054;2022-12-10T12:29:26;4.10;68.50
41628;DHT22;27321;50.816;6.054;2022-12-10T12:33:01;4.20;68.60
41628;DHT22;27321;50.816;6.054;2022-12-10T12:36:20;4.20;68.70
41628;DHT22;27321;50.816;6.054;2022-12-10T12:43:07;4.20;68.10
41628;DHT22;27321;50.816;6.054;2022-12-10T12:46:35;4.20;68.90
41628;DHT22;27321;50.816;6.054;2022-12-10T12:49:40;4.20;68.90
41628;DHT22;27321;50.816;6.054;2022-12-10T12:52:51;4.20;69.00
41628;DHT22;27321;50.816;6.054;2022-12-10T12:56:20;4.20;68.60
41628;DHT22;27321;50.816;6.054;2022-12-10T12:59:55;4.10;68.90
41628;DHT22;27321;50.816;6.054;2022-12-10T13:06:36;4.10;69.60
41628;DHT22;27321;50.816;6.054;2022-12-10T13:09:45;4.20;69.50
41628;DHT22;27321;50.816;6.054;2022-12-10T13:12:50;4.30;69.40
41628;DHT22;27321;50.816;6.054;2022-12-10T13:15:53;4.30;68.90
41628;DHT22;27321;50.816;6.054;2022-12-10T13:22:40;4.20;69.20
41628;DHT22;27321;50.816;6.054;2022-12-10T13:28:54;4.10;69.10
41628;DHT22;27321;50.816;6.054;2022-12-10T13:32:03;4.10;69.30
41628;DHT22;27321;50.816;6.054;2022-12-10T13:38:22;4.10;69.60
41628;DHT22;27321;50.816;6.054;2022-12-10T13:41:24;4.20;69.40
41628;DHT22;27321;50.816;6.054;2022-12-10T13:45:35;4.20;69.60
41628;DHT22;27321;50.816;6.054;2022-12-10T13:48:26;4.20;69.20
41628;DHT22;27321;50.816;6.054;2022-12-10T13:55:02;4.20;69.10
41628;DHT22;27321;50.816;6.054;2022-12-10T14:02:16;4.10;69.00
41628;DHT22;27321;50.816;6.054;2022-12-10T14:09:31;4.10;69.80
41628;DHT22;27321;50.816;6.054;2022-12-10T14:12:37;4.10;69.50
41628;DHT22;27321;50.816;6.054;2022-12-10T14:15:41;4.00;69.40
41628;DHT22;27321;50.816;6.054;2022-12-10T14:18:59;4.00;69.60
41628;DHT22;27321;50.816;6.054;2022-12-10T14:22:54;3.90;69.40
41628;DHT22;27321;50.816;6.054;2022-12-10T14:25:42;3.80;70.10
41628;DHT22;27321;50.816;6.054;2022-12-10T14:28:54;3.80;70.30
41628;DHT22;27321;50.816;6.054;2022-12-10T14:32:31;3.90;70.40
41628;DHT22;27321;50.816;6.054;2022-12-10T14:35:36;3.90;70.20
41628;DHT22;27321;50.816;6.054;2022-12-10T14:38:38;4.00;70.00
41628;DHT22;27321;50.816;6.054;2022-12-10T14:41:39;4.00;69.90
41628;DHT22;27321;50.816;6.054;2022-12-10T14:44:40;3.80;69.80
41628;DHT22;27321;50.816;6.054;2022-12-10T14:47:41;3.80;70.00
41628;DHT22;27321;50.816;6.054;2022-12-10T14:50:43;3.60;70.60
41628;DHT22;27321;50.816;6.054;2022-12-10T14:53:46;3.60;71.10
41628;DHT22;27321;50.816;6.054;2022-12-10T14:56:49;3.60;70.50
41628;DHT22;27321;50.816;6.054;2022-12-10T15:03:27;3.60;71.30
41628;DHT22;27321;50.816;6.054;2022-12-10T15:06:35;3.70;70.90
41628;DHT22;27321;50.816;6.054;2022-12-10T15:09:37;3.70;70.70
41628;DHT22;27321;50.816;6.054;2022-12-10T15:12:42;3.80;70.70
41628;DHT22;27321;50.816;6.054;2022-12-10T15:15:49;3.80;70.30
41628;DHT22;27321;50.816;6.054;2022-12-10T15:18:51;3.80;70.60
41628;DHT22;27321;50.816;6.054;2022-12-10T15:21:59;3.70;70.00
41628;DHT22;27321;50.816;6.054;2022-12-10T15:25:19;3.80;70.50
41628;DHT22;27321;50.816;6.054;2022-12-10T15:28:34;3.80;70.50
41628;DHT22;27321;50.816;6.054;2022-12-10T15:31:36;3.80;70.50
41628;DHT22;27321;50.816;6.054;2022-12-10T15:34:43;3.80;70.50
41628;DHT22;27321;50.816;6.054;2022-12-10T15:37:47;3.80;70.90
41628;DHT22;27321;50.816;6.054;2022-12-10T15:41:10;3.60;70.60
41628;DHT22;27321;50.816;6.054;2022-12-10T15:44:38;3.60;70.90
41628;DHT22;27321;50.816;6.054;2022-12-10T15:47:40;3.70;71.10
41628;DHT22;27321;50.816;6.054;2022-12-10T15:50:43;3.80;71.20
41628;DHT22;27321;50.816;6.054;2022-12-10T15:53:45;3.80;70.90
41628;DHT22;27321;50.816;6.054;2022-12-10T15:56:46;3.80;70.50
41628;DHT22;27321;50.816;6.054;2022-12-10T15:59:49;3.80;70.10
41628;DHT22;27321;50.816;6.054;2022-12-10T16:03:00;3.80;70.60
41628;DHT22;27321;50.816;6.054;2022-12-10T16:06:03;3.80;70.70
41628;DHT22;27321;50.816;6.054;2022-12-10T16:09:04;3.80;70.40
41628;DHT22;27321;50.816;6.054;2022-12-10T16:12:09;3.80;70.60
41628;DHT22;27321;50.816;6.054;2022-12-10T16:15:20;3.70;70.70
41628;DHT22;27321;50.816;6.054;2022-12-10T16:18:26;3.80;70.80
41628;DHT22;27321;50.816;6.054;2022-12-10T16:21:27;3.80;71.00
41628;DHT22;27321;50.816;6.054;2022-12-10T16:24:28;3.80;70.80
41628;DHT22;27321;50.816;6.054;2022-12-10T16:27:29;3.80;70.80
41628;DHT22;27321;50.816;6.054;2022-12-10T16:30:35;3.80;70.50
41628;DHT22;27321;50.816;6.054;2022-12-10T16:33:37;3.80;70.50
41628;DHT22;27321;50.816;6.054;2022-12-10T16:36:38;3.70;70.90
41628;DHT22;27321;50.816;6.054;2022-12-10T16:39:39;3.70;71.10
41628;DHT22;27321;50.816;6.054;2022-12-10T16:42:42;3.70;71.10
41628;DHT22;27321;50.816;6.054;2022-12-10T16:45:43;3.70;71.30
41628;DHT22;27321;50.816;6.054;2022-12-10T16:48:44;3.70;71.20
41628;DHT22;27321;50.816;6.054;2022-12-10T16:51:45;3.80;71.40
41628;DHT22;27321;50.816;6.054;2022-12-10T16:54:46;3.80;71.00
41628;DHT22;27321;50.816;6.054;2022-12-10T16:57:48;3.80;70.90
41628;DHT22;27321;50.816;6.054;2022-12-10T17:00:52;3.80;70.90
41628;DHT22;27321;50.816;6.054;2022-12-10T17:03:54;3.70;71.20
41628;DHT22;27321;50.816;6.054;2022-12-10T17:06:55;3.70;71.20
41628;DHT22;27321;50.816;6.054;2022-12-10T17:09:56;3.70;71.00
41628;DHT22;27321;50.816;6.054;2022-12-10T17:12:57;3.70;70.90
41628;DHT22;27321;50.816;6.054;2022-12-10T17:15:59;3.70;71.00
41628;DHT22;27321;50.816;6.054;2022-12-10T17:19:00;3.70;71.30
41628;DHT22;27321;50.816;6.054;2022-12-10T17:22:02;3.80;71.50
41628;DHT22;27321;50.816;6.054;2022-12-10T17:25:04;3.70;71.20
41628;DHT22;27321;50.816;6.054;2022-12-10T17:28:06;3.80;71.00
41628;DHT22;27321;50.816;6.054;2022-12-10T17:31:11;3.80;71.50
41628;DHT22;27321;50.816;6.054;2022-12-10T17:34:12;3.80;71.00
41628;DHT22;27321;50.816;6.054;2022-12-10T17:37:18;3.70;71.50
41628;DHT22;27321;50.816;6.054;2022-12-10T17:40:20;3.70;71.40
41628;DHT22;27321;50.816;6.054;2022-12-10T17:43:22;3.70;71.10
41628;DHT22;27321;50.816;6.054;2022-12-10T17:46:25;3.70;71.50
41628;DHT22;27321;50.816;6.054;2022-12-10T17:49:26;3.70;71.30
41628;DHT22;27321;50.816;6.054;2022-12-10T17:52:27;3.70;71.40
41628;DHT22;27321;50.816;6.054;2022-12-10T17:55:28;3.70;71.80
41628;DHT22;27321;50.816;6.054;2022-12-10T17:58:30;3.70;71.20
41628;DHT22;27321;50.816;6.054;2022-12-10T18:01:31;3.60;72.10
41628;DHT22;27321;50.816;6.054;2022-12-10T18:04:32;3.70;72.00
41628;DHT22;27321;50.816;6.054;2022-12-10T18:07:33;3.70;71.70
41628;DHT22;27321;50.816;6.054;2022-12-10T18:10:34;3.70;71.60
41628;DHT22;27321;50.816;6.054;2022-12-10T18:13:35;3.70;71.30
41628;DHT22;27321;50.816;6.054;2022-12-10T18:16:36;3.70;71.40
41628;DHT22;27321;50.816;6.054;2022-12-10T18:19:37;3.70;71.20
41628;DHT22;27321;50.816;6.054;2022-12-10T18:22:38;3.70;71.30
41628;DHT22;27321;50.816;6.054;2022-12-10T18:25:48;3.60;71.60
41628;DHT22;27321;50.816;6.054;2022-12-10T18:28:56;3.70;71.60
41628;DHT22;27321;50.816;6.054;2022-12-10T18:31:57;3.60;71.80
41628;DHT22;27321;50.816;6.054;2022-12-10T18:35:00;3.50;72.20
41628;DHT22;27321;50.816;6.054;2022-12-10T18:38:01;3.40;71.80
41628;DHT22;27321;50.816;6.054;2022-12-10T18:41:02;3.40;73.00
41628;DHT22;27321;50.816;6.054;2022-12-10T18:44:03;3.30;72.20
41628;DHT22;27321;50.816;6.054;2022-12-10T18:47:05;3.30;73.00
41628;DHT22;27321;50.816;6.054;2022-12-10T18:50:19;3.30;73.30
41628;DHT22;27321;50.816;6.054;2022-12-10T18:53:23;3.30;73.30
41628;DHT22;27321;50.816;6.054;2022-12-10T18:56:26;3.40;73.10
41628;DHT22;27321;50.816;6.054;2022-12-10T18:59:30;3.40;72.50
41628;DHT22;27321;50.816;6.054;2022-12-10T19:02:31;3.40;72.50
41628;DHT22;27321;50.816;6.054;2022-12-10T19:05:32;3.30;72.40
41628;DHT22;27321;50.816;6.054;2022-12-10T19:08:33;3.30;72.30
41628;DHT22;27321;50.816;6.054;2022-12-10T19:11:34;3.20;72.50
41628;DHT22;27321;50.816;6.054;2022-12-10T19:14:35;3.10;72.60
41628;DHT22;27321;50.816;6.054;2022-12-10T19:17:36;3.10;72.90
41628;DHT22;27321;50.816;6.054;2022-12-10T19:20:37;3.20;72.40
41628;DHT22;27321;50.816;6.054;2022-12-10T19:23:39;3.10;72.90
41628;DHT22;27321;50.816;6.054;2022-12-10T19:26:42;3.10;73.40
41628;DHT22;27321;50.816;6.054;2022-12-10T19:29:44;3.20;73.10
41628;DHT22;27321;50.816;6.054;2022-12-10T19:32:46;3.20;72.50
41628;DHT22;27321;50.816;6.054;2022-12-10T19:35:47;3.30;72.80
41628;DHT22;27321;50.816;6.054;2022-12-10T19:38:48;3.30;72.50
41628;DHT22;27321;50.816;6.054;2022-12-10T19:41:50;3.30;72.50
41628;DHT22;27321;50.816;6.054;2022-12-10T19:44:52;3.30;72.80
41628;DHT22;27321;50.816;6.054;2022-12-10T19:47:54;3.40;72.90
41628;DHT22;27321;50.816;6.054;2022-12-10T19:50:57;3.40;72.40
41628;DHT22;27321;50.816;6.054;2022-12-10T19:53:58;3.50;72.60
41628;DHT22;27321;50.816;6.054;2022-12-10T19:56:59;3.50;72.00
41628;DHT22;27321;50.816;6.054;2022-12-10T20:00:01;3.50;72.10
41628;DHT22;27321;50.816;6.054;2022-12-10T20:03:02;3.40;71.70
41628;DHT22;27321;50.816;6.054;2022-12-10T20:06:15;3.30;72.20
41628;DHT22;27321;50.816;6.054;2022-12-10T20:09:23;3.10;72.20
41628;DHT22;27321;50.816;6.054;2022-12-10T20:12:26;3.20;72.80
41628;DHT22;27321;50.816;6.054;2022-12-10T20:15:28;3.20;72.70
41628;DHT22;27321;50.816;6.054;2022-12-10T20:18:29;3.30;72.90
41628;DHT22;27321;50.816;6.054;2022-12-10T20:21:31;3.40;72.50
41628;DHT22;27321;50.816;6.054;2022-12-10T20:24:32;3.30;72.30
41628;DHT22;27321;50.816;6.054;2022-12-10T20:27:33;3.30;72.30
41628;DHT22;27321;50.816;6.054;2022-12-10T20:30:34;3.40;72.00
41628;DHT22;27321;50.816;6.054;2022-12-10T20:33:36;3.30;71.90
41628;DHT22;27321;50.816;6.054;2022-12-10T20:36:38;3.30;72.40
41628;DHT22;27321;50.816;6.054;2022-12-10T20:39:39;3.40;72.30
41628;DHT22;27321;50.816;6.054;2022-12-10T20:42:40;3.40;72.00
41628;DHT22;27321;50.816;6.054;2022-12-10T20:45:41;3.40;71.60
41628;DHT22;27321;50.816;6.054;2022-12-10T20:48:42;3.40;72.50
41628;DHT22;27321;50.816;6.054;2022-12-10T20:51:43;3.40;71.90
41628;DHT22;27321;50.816;6.054;2022-12-10T20:54:45;3.40;72.00
41628;DHT22;27321;50.816;6.054;2022-12-10T20:57:46;3.50;72.10
41628;DHT22;27321;50.816;6.054;2022-12-10T21:00:47;3.40;71.40
41628;DHT22;27321;50.816;6.054;2022-12-10T21:03:48;3.40;72.10
41628;DHT22;27321;50.816;6.054;2022-12-10T21:06:49;3.40;72.00
41628;DHT22;27321;50.816;6.054;2022-12-10T21:09:50;3.30;72.30
41628;DHT22;27321;50.816;6.054;2022-12-10T21:12:51;3.40;72.20
41628;DHT22;27321;50.816;6.054;2022-12-10T21:15:54;3.40;71.60
41628;DHT22;27321;50.816;6.054;2022-12-10T21:18:58;3.30;72.00
41628;DHT22;27321;50.816;6.054;2022-12-10T21:22:00;3.20;72.60
41628;DHT22;27321;50.816;6.054;2022-12-10T21:25:01;3.30;72.50
41628;DHT22;27321;50.816;6.054;2022-12-10T21:28:04;3.30;72.70